Goshen, California
Current Conditions -  °F | °C
As of 3:15 AM on Friday 28 Nov 2014 (Local Time) from KVIS Reporting Station
Overcast Overcast  
Wind Chill: 43°   Ceiling: 500
Heat Index: 43°   Visibility: 0.75mi
Dew Point: 37°   Wind: 0mph
Humidity: 81%   Direction: NA
Pressure: 30.05"   Gusts: NA
Location:  36.35°N, 119.42°W
Report Text: KVIS 281115Z 00000KT 3/4SM VV005 06/03 A3005 RMK AO1
Loading
Personal Weather Stations






























Interactive Weather Map New forecast layout! Learn more

10-Day Weather Forecast

Advertisements
Track Severe Weather on mobile